WetterOnline ( https://www.wetteronline.de )

Wetter aktuell Riol

Aktuelles Wetter: Trier/Petrisberg (273m)

6-stündlich | Neueste Meldungen
Ortszeit Temperatur Wetter
So, 25.08. 14:00 28.7° C wolkenlos
So, 25.08. 8:00 14.1° C wolkenlos
So, 25.08. 2:00 16.9° C wolkenlos
Sa, 24.08. 20:00 26.2° C wolkenlos
Sa, 24.08. 14:00 28.0° C wolkenlos
Sa, 24.08. 8:00 12.6° C wolkenlos
Sa, 24.08. 2:00 15.8° C leicht bewölkt
Fr, 23.08. 20:00 24.6° C wolkenlos
Ortszeit Temperatur Wetter
So, 25.08. 18:00 30.2° C leicht bewölkt
So, 25.08. 17:50 30.2° C leicht bewölkt
So, 25.08. 17:40 30.5° C wolkenlos
So, 25.08. 17:30 29.7° C wolkenlos
So, 25.08. 17:20 29.7° C wolkenlos
So, 25.08. 17:10 29.9° C wolkenlos
So, 25.08. 17:00 29.5° C wolkenlos
So, 25.08. 16:30 30.0° C fast wolkenlos
So, 25.08. 16:00 29.8° C leicht bewölkt
So, 25.08. 15:30 29.4° C leicht bewölkt
So, 25.08. 15:00 29.1° C wolkenlos
Ortszeit Relative Feuchte Sichtweite
So, 25.08. 14:00 40% 50 km
So, 25.08. 8:00 85% 35 km
So, 25.08. 2:00 67% 65 km
Sa, 24.08. 20:00 29% 70 km
Sa, 24.08. 14:00 36% 70 km
Sa, 24.08. 8:00 84% 40 km
Sa, 24.08. 2:00 68% 70 km
Fr, 23.08. 20:00 34% 70 km
Ortszeit Relative Feuchte Sichtweite
So, 25.08. 18:00 36% 55 km
So, 25.08. 17:50 36% -
So, 25.08. 17:40 36% -
So, 25.08. 17:30 37% 55 km
So, 25.08. 17:20 37% -
So, 25.08. 17:10 38% -
So, 25.08. 17:00 41% 50 km
So, 25.08. 16:30 37% 50 km
So, 25.08. 16:00 38% 50 km
So, 25.08. 15:30 38% 50 km
So, 25.08. 15:00 38% 50 km
Ortszeit Niederschlagsmenge Niederschlagsart
So, 25.08. 14:00 0.0 l/m2 in 6 Std. -
So, 25.08. 8:00 0.0 l/m2 in 12 Std. -
So, 25.08. 2:00 0.0 l/m2 in 6 Std. -
Sa, 24.08. 20:00 0.0 l/m2 in 12 Std. -
Sa, 24.08. 14:00 0.0 l/m2 in 6 Std. -
Sa, 24.08. 8:00 0.0 l/m2 in 12 Std. -
Sa, 24.08. 2:00 0.0 l/m2 in 6 Std. -
Fr, 23.08. 20:00 0.0 l/m2 in 12 Std. -
Ortszeit Niederschlagsmenge Niederschlagsart
So, 25.08. 18:00 0.0 l/m2 in 1 Std. -
So, 25.08. 17:50 keine Meldung -
So, 25.08. 17:40 keine Meldung -
So, 25.08. 17:30 0.0 l/m2 in 1 Std. -
So, 25.08. 17:20 keine Meldung -
So, 25.08. 17:10 keine Meldung -
So, 25.08. 17:00 0.0 l/m2 in 1 Std. -
So, 25.08. 16:30 0.0 l/m2 in 1 Std. -
So, 25.08. 16:00 0.0 l/m2 in 1 Std. -
So, 25.08. 15:30 0.0 l/m2 in 1 Std. -
So, 25.08. 15:00 0.0 l/m2 in 1 Std. -
Ortszeit Stärke Spitze Richtung
km/h Bft. km/h Grad Sektor
So, 25.08. 14:00 6 1 15 340° N
So, 25.08. 8:00 4 1 14 30° NO
So, 25.08. 2:00 11 2 22 10° N
Sa, 24.08. 20:00 7 2 32 90° O
Sa, 24.08. 14:00 13 3 28 50° NO
Sa, 24.08. 8:00 11 2 22 20° N
Sa, 24.08. 2:00 11 2 22 10° N
Fr, 23.08. 20:00 9 2 31 90° O
Ortszeit Stärke Spitze Richtung
km/h Bft. km/h Grad Sektor
So, 25.08. 18:00 7 2 14 310° NW
So, 25.08. 17:50 7 2 - 310° NW
So, 25.08. 17:40 4 1 - 220° SW
So, 25.08. 17:30 7 2 11 180° S
So, 25.08. 17:20 7 2 - 180° S
So, 25.08. 17:10 4 1 - 340° N
So, 25.08. 17:00 7 2 14 360° N
So, 25.08. 16:30 6 1 15 70° O
So, 25.08. 16:00 6 1 15 20° N
So, 25.08. 15:30 7 2 11 230° SW
So, 25.08. 15:00 7 2 14 320° NW
Ortszeit Untergrenze Bedeckung Gattung
total tief tief mittel hoch
So, 25.08. 14:00 - 0/8 0/8 - - -
So, 25.08. 8:00 - 0/8 0/8 - - -
So, 25.08. 2:00 - 0/8 0/8 - - -
Sa, 24.08. 20:00 - 0/8 0/8 - - -
Sa, 24.08. 14:00 - 0/8 0/8 - - -
Sa, 24.08. 8:00 - 0/8 0/8 - - -
Sa, 24.08. 2:00 10500 m 6/8 0/8 - - -
Fr, 23.08. 20:00 - 0/8 0/8 - - -
Ortszeit Bedeckungsgrad in Achtel und Wolkenuntergrenze
So, 25.08. 18:00 3(1800m)
So, 25.08. 17:50 3(1800m)
So, 25.08. 17:40 keine Wolken
So, 25.08. 17:30 keine Wolken
So, 25.08. 17:20 keine Wolken
So, 25.08. 17:10 keine Wolken
So, 25.08. 17:00 keine Wolken
So, 25.08. 16:30 2(9000m)
So, 25.08. 16:00 2(1500m) 4(10500m) 5(10500m)
So, 25.08. 15:30 2(9000m) 5(10500m)
So, 25.08. 15:00 1(9000m)
Ortszeit Luftdruck NN (hPa) Tendenz (hPa in 3 Std.)
So, 25.08. 14:00 1018 - 0,7
So, 25.08. 8:00 1020 + 0,5
So, 25.08. 2:00 1019 - 0,1
Sa, 24.08. 20:00 1018 - 0,5
Sa, 24.08. 14:00 1019 - 1,4
Sa, 24.08. 8:00 1023 + 0,3
Sa, 24.08. 2:00 1022 - 0,6
Fr, 23.08. 20:00 1022 - 0,5
Ortszeit Luftdruck NN (hPa) Tendenz (hPa in 3 Std.)
So, 25.08. 18:00 1017 - 0,9
So, 25.08. 17:50 1017 keine Meldung
So, 25.08. 17:40 1017 keine Meldung
So, 25.08. 17:30 1017 - 0,9
So, 25.08. 17:20 1017 keine Meldung
So, 25.08. 17:10 1017 keine Meldung
So, 25.08. 17:00 1017 - 0,8
So, 25.08. 16:30 1017 - 0,9
So, 25.08. 16:00 1017 - 0,9
So, 25.08. 15:30 1018 - 0,8
So, 25.08. 15:00 1018 - 0,6
Ortszeit Schneehöhe (cm)
So, 25.08. 14:00 -
So, 25.08. 8:00 -
So, 25.08. 2:00 -
Sa, 24.08. 20:00 -
Sa, 24.08. 14:00 -
Sa, 24.08. 8:00 -
Sa, 24.08. 2:00 -
Fr, 23.08. 20:00 -
Ortszeit Schneehöhe (cm)
So, 25.08. 18:00 -
So, 25.08. 17:50 -
So, 25.08. 17:40 -
So, 25.08. 17:30 -
So, 25.08. 17:20 -
So, 25.08. 17:10 -
So, 25.08. 17:00 -
So, 25.08. 16:30 -
So, 25.08. 16:00 -
So, 25.08. 15:30 -
So, 25.08. 15:00 -
Link zu dieser Seite / Seite empfehlen

Das Wetter in ...